KOCF/OCF METAR and TAF weather

Enter ICAO airport designator
Station Type Date Time Source
KOCF METAR 2018/12/10 01:51 UTC NOAA

KOCF 100151Z AUTO 27007KT 8SM OVC011 16/14 A2994 RMK AO2 SLP142 T01560139


Station Type Date Time Source
KOCF Decoded METAR 2018/12/10 01:51 UTC NOAA

Ocala, Ocala International Airport-Jim Taylor Field, FL, United States (KOCF) 29-10N 082-13W
Dec 09, 2018 - 08:51 PM EST / 2018.12.10 0151 UTC
Wind: from the W (270 degrees) at 8 MPH (7 KT):0
Visibility: 8 mile(s):0
Sky conditions: overcast
Temperature: 60.1 F (15.6 C)
Dew Point: 57.0 F (13.9 C)
Relative Humidity: 89%
Pressure (altimeter): 29.94 in. Hg (1013 hPa)
ob: KOCF 100151Z AUTO 27007KT 8SM OVC011 16/14 A2994 RMK AO2 SLP142 T01560139
cycle: 2

Station Type Date Time Source
KOCF TAF UTC NOAA

Error!


Example: see airport list